createdAt,value
2018-07-09T00:00:55.421Z,1.20
2018-07-09T00:03:30.229Z,1.50
2018-07-09T00:05:58.659Z,1.30
2018-07-09T00:08:27.037Z,1.20
2018-07-09T00:11:00.046Z,0.90
2018-07-09T00:13:29.127Z,1.20
2018-07-09T00:15:57.961Z,1.20
2018-07-09T00:18:26.413Z,1.47
2018-07-09T00:20:54.722Z,1.13
2018-07-09T00:23:23.221Z,1.00
2018-07-09T00:25:52.205Z,0.80
2018-07-09T00:28:21.236Z,1.37
2018-07-09T00:30:49.560Z,1.07
2018-07-09T00:33:18.324Z,0.90
2018-07-09T00:35:47.248Z,0.77
2018-07-09T00:38:16.032Z,0.80
2018-07-09T00:40:44.520Z,1.30
2018-07-09T00:43:12.812Z,1.43
2018-07-09T00:45:41.132Z,0.90
2018-07-09T00:48:09.463Z,1.30
2018-07-09T00:50:37.875Z,0.80
2018-07-09T00:53:06.241Z,0.70
2018-07-09T00:55:34.975Z,1.03
2018-07-09T00:58:03.412Z,1.10
2018-07-09T01:00:31.920Z,1.10
2018-07-09T01:03:00.213Z,0.93
2018-07-09T01:05:29.114Z,0.80
2018-07-09T01:07:57.412Z,1.00
2018-07-09T01:10:25.783Z,1.00
2018-07-09T01:12:54.112Z,0.70
2018-07-09T01:15:22.451Z,0.90
2018-07-09T01:17:50.839Z,0.87
2018-07-09T01:20:19.271Z,0.93
2018-07-09T01:22:48.020Z,0.90
2018-07-09T01:25:16.341Z,1.00
2018-07-09T01:27:44.625Z,0.90
2018-07-09T01:30:15.456Z,1.23
2018-07-09T01:32:43.775Z,0.90
2018-07-09T01:35:13.090Z,0.87
2018-07-09T01:37:42.074Z,1.13
2018-07-09T01:40:10.547Z,1.00
2018-07-09T01:42:38.915Z,0.90
2018-07-09T01:45:07.299Z,0.70
2018-07-09T01:47:35.678Z,0.90
2018-07-09T01:50:04.259Z,1.00
2018-07-09T01:52:32.884Z,1.50
2018-07-09T01:55:01.597Z,1.07
2018-07-09T01:57:29.975Z,1.20
2018-07-09T01:59:58.374Z,1.10
2018-07-09T02:02:26.423Z,0.90
2018-07-09T02:04:54.733Z,0.80
2018-07-09T02:07:22.818Z,1.03
2018-07-09T02:09:51.520Z,0.73
2018-07-09T02:12:19.873Z,1.10
2018-07-09T02:14:48.179Z,1.10
2018-07-09T02:17:16.526Z,1.10
2018-07-09T02:19:45.067Z,0.83
2018-07-09T02:22:13.527Z,1.47
2018-07-09T02:24:41.922Z,0.90
2018-07-09T02:27:10.492Z,1.20
2018-07-09T02:29:38.592Z,0.87
2018-07-09T02:32:07.100Z,1.50
2018-07-09T02:34:38.845Z,1.27
2018-07-09T02:37:06.908Z,1.10
2018-07-09T02:39:35.625Z,1.23
2018-07-09T02:42:04.212Z,0.90
2018-07-09T02:44:32.842Z,1.13
2018-07-09T02:47:01.387Z,1.13
2018-07-09T02:49:29.887Z,0.80
2018-07-09T02:51:58.541Z,1.37
2018-07-09T02:54:26.944Z,1.03
2018-07-09T02:56:55.273Z,1.00
2018-07-09T02:59:23.701Z,1.07
2018-07-09T03:01:52.037Z,0.90
2018-07-09T03:04:20.453Z,1.00
2018-07-09T03:06:48.803Z,1.13
2018-07-09T03:09:17.301Z,1.10
2018-07-09T03:11:45.695Z,0.90
2018-07-09T03:14:14.112Z,1.13
2018-07-09T03:16:42.659Z,1.37
2018-07-09T03:19:11.019Z,1.47
2018-07-09T03:21:39.352Z,1.07
2018-07-09T03:24:07.640Z,1.20
2018-07-09T03:26:35.990Z,0.90
2018-07-09T03:29:04.559Z,1.20
2018-07-09T03:31:33.002Z,1.40
2018-07-09T03:34:01.449Z,1.70
2018-07-09T03:36:29.884Z,1.60
2018-07-09T03:38:58.441Z,1.50
2018-07-09T03:41:26.780Z,1.47
2018-07-09T03:43:55.126Z,4.57
2018-07-09T03:46:23.430Z,2.77
2018-07-09T03:48:51.744Z,1.47
2018-07-09T03:51:20.027Z,1.70
2018-07-09T03:53:48.316Z,1.00
2018-07-09T03:56:16.404Z,1.60
2018-07-09T03:58:44.715Z,1.40
2018-07-09T04:01:12.968Z,1.20
2018-07-09T04:03:41.319Z,1.20
2018-07-09T04:06:09.637Z,1.23
2018-07-09T04:08:38.137Z,1.10
2018-07-09T04:11:06.679Z,1.47
2018-07-09T04:13:35.180Z,1.20
2018-07-09T04:16:03.680Z,1.13
2018-07-09T04:18:32.404Z,1.40
2018-07-09T04:21:01.478Z,4.10
2018-07-09T04:23:30.451Z,3.97
2018-07-09T04:25:59.083Z,1.93
2018-07-09T04:28:27.552Z,1.87
2018-07-09T04:30:55.892Z,2.93
2018-07-09T04:33:24.408Z,1.80
2018-07-09T04:35:52.906Z,1.77
2018-07-09T04:38:21.384Z,1.33
2018-07-09T04:40:49.768Z,1.70
2018-07-09T04:43:18.167Z,1.33
2018-07-09T04:45:46.564Z,1.60
2018-07-09T04:48:14.955Z,1.60
2018-07-09T04:50:43.275Z,1.27
2018-07-09T04:53:11.603Z,1.47
2018-07-09T04:55:40.203Z,1.50
2018-07-09T04:58:08.675Z,1.30
2018-07-09T05:00:37.050Z,1.50
2018-07-09T05:03:05.694Z,1.50
2018-07-09T05:05:34.219Z,1.30
2018-07-09T05:08:03.096Z,1.83
2018-07-09T05:10:31.462Z,1.40
2018-07-09T05:12:59.947Z,1.60
2018-07-09T05:15:28.879Z,1.73
2018-07-09T05:17:57.285Z,7.03
2018-07-09T05:20:25.784Z,12.53
2018-07-09T05:22:54.080Z,6.40
2018-07-09T05:25:22.542Z,10.40
2018-07-09T05:27:50.978Z,8.20
2018-07-09T05:30:19.294Z,10.17
2018-07-09T05:32:47.541Z,4.00
2018-07-09T05:35:15.931Z,3.07
2018-07-09T05:37:44.289Z,8.27
2018-07-09T05:40:12.821Z,16.13
2018-07-09T05:42:41.232Z,8.20
2018-07-09T05:45:09.608Z,4.17
2018-07-09T05:47:37.958Z,3.43
2018-07-09T05:50:06.425Z,3.47
2018-07-09T05:52:35.037Z,6.63
2018-07-09T05:55:03.519Z,4.77
2018-07-09T05:57:31.860Z,3.33
2018-07-09T06:00:00.265Z,2.50
2018-07-09T06:02:28.686Z,2.33
2018-07-09T06:04:57.212Z,2.00
2018-07-09T06:07:25.491Z,1.50
2018-07-09T06:09:53.822Z,1.67
2018-07-09T06:12:22.140Z,1.80
2018-07-09T06:14:50.467Z,1.70
2018-07-09T06:17:18.745Z,1.57
2018-07-09T06:19:47.304Z,1.60
2018-07-09T06:22:15.843Z,1.47
2018-07-09T06:24:44.313Z,1.63
2018-07-09T06:27:12.956Z,1.40
2018-07-09T06:29:41.363Z,1.43
2018-07-09T06:32:09.774Z,1.47
2018-07-09T06:34:38.247Z,1.47
2018-07-09T06:37:06.783Z,1.30
2018-07-09T06:39:35.296Z,1.63
2018-07-09T06:42:03.845Z,1.43
2018-07-09T06:44:32.383Z,3.60
2018-07-09T06:47:01.034Z,10.60
2018-07-09T06:49:29.419Z,11.97
2018-07-09T06:51:58.028Z,8.37
2018-07-09T06:54:26.425Z,8.53
2018-07-09T06:56:54.751Z,5.67
2018-07-09T06:59:23.148Z,6.30
2018-07-09T07:01:51.598Z,2.67
2018-07-09T07:04:19.945Z,3.10
2018-07-09T07:06:48.317Z,2.07
2018-07-09T07:09:16.716Z,1.80
2018-07-09T07:11:45.033Z,1.87
2018-07-09T07:14:13.461Z,1.70
2018-07-09T07:16:41.522Z,1.67
2018-07-09T07:19:16.455Z,1.70
2018-07-09T07:21:44.794Z,1.43
2018-07-09T07:24:13.309Z,1.60
2018-07-09T07:26:41.828Z,1.50
2018-07-09T07:29:10.231Z,1.43
2018-07-09T07:31:38.739Z,1.60
2018-07-09T07:34:06.931Z,1.37
2018-07-09T07:36:35.565Z,1.70
2018-07-09T07:39:05.004Z,1.57
2018-07-09T07:41:36.731Z,1.33
2018-07-09T07:44:05.591Z,1.53
2018-07-09T07:46:33.937Z,1.67
2018-07-09T07:49:02.740Z,1.60
2018-07-09T07:51:31.097Z,1.43
2018-07-09T07:53:59.490Z,1.33
2018-07-09T07:56:28.251Z,2.20
2018-07-09T07:58:56.788Z,1.87
2018-07-09T08:01:25.504Z,1.60
2018-07-09T08:03:53.893Z,1.40
2018-07-09T08:06:22.093Z,1.50
2018-07-09T08:08:50.422Z,1.60
2018-07-09T08:11:18.797Z,1.40
2018-07-09T08:13:47.246Z,1.47
2018-07-09T08:16:15.749Z,1.10
2018-07-09T08:18:44.223Z,1.40
2018-07-09T08:21:12.916Z,1.50
2018-07-09T08:23:41.400Z,1.50
2018-07-09T08:26:09.862Z,1.47
2018-07-09T08:28:38.235Z,1.50
2018-07-09T08:31:06.722Z,1.20
2018-07-09T08:33:34.988Z,1.50
2018-07-09T08:36:03.308Z,1.47
2018-07-09T08:38:31.795Z,1.90
2018-07-09T08:41:00.205Z,2.03
2018-07-09T08:43:28.723Z,1.67
2018-07-09T08:45:57.049Z,1.30
2018-07-09T08:48:25.360Z,1.73
2018-07-09T08:50:53.844Z,1.63
2018-07-09T08:53:22.120Z,1.77
2018-07-09T08:55:50.568Z,1.73
2018-07-09T08:58:18.892Z,1.60
2018-07-09T09:00:50.836Z,1.40
2018-07-09T09:03:19.244Z,1.53
2018-07-09T09:05:47.537Z,1.40
2018-07-09T09:08:15.980Z,1.30
2018-07-09T09:10:44.299Z,1.40
2018-07-09T09:13:12.835Z,1.53
2018-07-09T09:15:41.289Z,1.47
2018-07-09T09:18:09.762Z,1.37
2018-07-09T09:20:38.396Z,1.73
2018-07-09T09:23:06.777Z,1.80
2018-07-09T09:25:35.563Z,1.23
2018-07-09T09:28:04.443Z,1.60
2018-07-09T09:30:32.804Z,1.53
2018-07-09T09:33:01.216Z,1.43
2018-07-09T09:35:29.981Z,1.60
2018-07-09T09:37:58.922Z,1.50
2018-07-09T09:40:27.256Z,1.60
2018-07-09T09:42:55.924Z,1.30
2018-07-09T09:45:24.298Z,1.30
2018-07-09T09:47:52.648Z,1.40
2018-07-09T09:50:21.157Z,1.63
2018-07-09T09:52:49.590Z,1.50
2018-07-09T09:55:17.952Z,1.60
2018-07-09T09:57:46.287Z,1.40
2018-07-09T10:00:14.839Z,1.40
2018-07-09T10:02:43.119Z,1.17
2018-07-09T10:05:11.522Z,1.50
2018-07-09T10:07:39.986Z,1.40
2018-07-09T10:10:08.443Z,1.50
2018-07-09T10:12:36.741Z,1.30
2018-07-09T10:15:05.387Z,1.20
2018-07-09T10:17:33.972Z,1.20
2018-07-09T10:20:02.488Z,1.53
2018-07-09T10:22:30.890Z,1.33
2018-07-09T10:24:59.349Z,1.50
2018-07-09T10:27:27.905Z,1.70
2018-07-09T10:29:56.236Z,1.63
2018-07-09T10:32:24.495Z,1.50
2018-07-09T10:34:52.608Z,1.97
2018-07-09T10:37:21.215Z,1.50
2018-07-09T10:39:49.800Z,1.13
2018-07-09T10:42:18.192Z,1.60
2018-07-09T10:44:46.494Z,1.57
2018-07-09T10:47:14.848Z,1.67
2018-07-09T10:49:43.186Z,1.37
2018-07-09T10:52:11.528Z,1.60
2018-07-09T10:54:39.972Z,1.20
2018-07-09T10:57:08.656Z,1.33
2018-07-09T10:59:37.034Z,1.30
2018-07-09T11:02:05.624Z,1.47
2018-07-09T11:04:34.011Z,1.10
2018-07-09T11:07:02.672Z,1.30
2018-07-09T11:09:31.565Z,1.13
2018-07-09T11:11:59.571Z,1.50
2018-07-09T11:14:27.864Z,1.23
2018-07-09T11:16:56.248Z,1.30
2018-07-09T11:19:24.642Z,1.30
2018-07-09T11:21:52.984Z,1.10
2018-07-09T11:24:21.153Z,1.20
2018-07-09T11:26:49.845Z,1.47
2018-07-09T11:29:18.545Z,1.70
2018-07-09T11:31:46.855Z,1.57
2018-07-09T11:34:15.202Z,1.70
2018-07-09T11:36:43.640Z,1.67
2018-07-09T11:39:12.144Z,1.50
2018-07-09T11:41:40.714Z,1.43
2018-07-09T11:44:09.219Z,1.77
2018-07-09T11:46:37.721Z,1.80
2018-07-09T11:49:06.340Z,1.80
2018-07-09T11:51:34.837Z,2.00
2018-07-09T11:54:03.640Z,2.20
2018-07-09T11:56:32.266Z,2.10
2018-07-09T11:59:01.041Z,2.43
2018-07-09T12:01:29.739Z,2.00
2018-07-09T12:03:58.359Z,1.83
2018-07-09T12:06:27.109Z,1.97
2018-07-09T12:08:55.755Z,1.93
2018-07-09T12:11:24.335Z,1.60
2018-07-09T12:13:52.846Z,1.83
2018-07-09T12:16:21.246Z,1.70
2018-07-09T12:18:49.655Z,1.80
2018-07-09T12:21:18.072Z,1.60
2018-07-09T12:23:46.521Z,1.60
2018-07-09T12:26:14.966Z,1.57
2018-07-09T12:28:43.471Z,1.50
2018-07-09T12:31:11.796Z,1.53
2018-07-09T12:33:40.547Z,1.50
2018-07-09T12:36:09.824Z,1.43
2018-07-09T12:38:38.511Z,1.23
2018-07-09T12:41:07.289Z,1.37
2018-07-09T12:43:35.887Z,1.60
2018-07-09T12:46:04.628Z,1.60
2018-07-09T12:48:33.338Z,1.27
2018-07-09T12:51:01.913Z,1.30
2018-07-09T12:53:30.457Z,1.57
2018-07-09T12:55:58.804Z,1.50
2018-07-09T12:58:27.132Z,1.27
2018-07-09T13:00:55.498Z,1.40
2018-07-09T13:03:24.080Z,1.40
2018-07-09T13:05:52.483Z,1.12
2018-07-09T13:08:20.911Z,1.67
2018-07-09T13:10:49.252Z,1.40
2018-07-09T13:13:17.608Z,1.72
2018-07-09T13:15:46.295Z,1.40
2018-07-09T13:18:14.775Z,1.45
2018-07-09T13:20:43.177Z,1.20
2018-07-09T13:23:11.500Z,1.40
2018-07-09T13:25:40.732Z,1.32
2018-07-09T13:28:09.007Z,1.37
2018-07-09T13:30:37.356Z,1.60
2018-07-09T13:33:06.161Z,1.30
2018-07-09T13:35:34.510Z,1.30
2018-07-09T13:38:02.897Z,1.22
2018-07-09T13:40:31.450Z,1.30
2018-07-09T13:42:59.905Z,1.27
2018-07-09T13:45:28.502Z,1.22
2018-07-09T13:47:56.891Z,1.77
2018-07-09T13:50:25.279Z,1.50
2018-07-09T13:52:53.616Z,1.32
2018-07-09T13:55:22.014Z,1.70
2018-07-09T13:57:50.060Z,1.42
2018-07-09T14:00:18.332Z,1.42
2018-07-09T14:02:46.803Z,1.77
2018-07-09T14:05:15.230Z,1.52
2018-07-09T14:07:43.684Z,1.32
2018-07-09T14:10:12.186Z,1.42
2018-07-09T14:12:40.508Z,1.75
2018-07-09T14:15:08.824Z,1.50
2018-07-09T14:17:37.154Z,1.30
2018-07-09T14:20:20.393Z,1.60
2018-07-09T14:22:48.781Z,1.50
2018-07-09T14:25:17.685Z,1.45
2018-07-09T14:27:46.000Z,1.40
2018-07-09T14:30:14.319Z,1.30
2018-07-09T14:32:43.079Z,1.20
2018-07-09T14:35:11.493Z,1.37
2018-07-09T14:37:39.807Z,1.50
2018-07-09T14:40:08.131Z,1.00
2018-07-09T14:42:37.187Z,1.30
2018-07-09T14:45:05.714Z,1.40
2018-07-09T14:47:34.112Z,1.30
2018-07-09T14:50:02.737Z,1.30
2018-07-09T14:52:31.393Z,1.50
2018-07-09T14:54:59.957Z,1.40
2018-07-09T14:57:28.352Z,1.40
2018-07-09T14:59:56.936Z,1.30
2018-07-09T15:02:25.348Z,1.20
2018-07-09T15:04:53.665Z,1.40
2018-07-09T15:07:22.117Z,1.30
2018-07-09T15:09:50.545Z,1.10
2018-07-09T15:12:18.931Z,1.27
2018-07-09T15:14:47.314Z,1.23
2018-07-09T15:17:15.577Z,1.30
2018-07-09T15:19:43.910Z,1.60
2018-07-09T15:22:12.317Z,1.30
2018-07-09T15:24:43.638Z,1.27
2018-07-09T15:27:12.008Z,1.47
2018-07-09T15:29:40.715Z,1.40
2018-07-09T15:32:17.924Z,1.20
2018-07-09T15:34:46.181Z,1.47
2018-07-09T15:37:14.478Z,1.60
2018-07-09T15:39:42.905Z,1.67
2018-07-09T15:42:11.267Z,1.50
2018-07-09T15:44:39.568Z,1.70
2018-07-09T15:47:07.958Z,1.40
2018-07-09T15:49:36.445Z,1.67
2018-07-09T15:52:04.771Z,1.70
2018-07-09T15:54:33.084Z,1.50
2018-07-09T15:57:01.515Z,1.70
2018-07-09T15:59:29.920Z,1.60
2018-07-09T16:01:58.269Z,1.53
2018-07-09T16:04:26.636Z,1.50
2018-07-09T16:06:55.084Z,1.50
2018-07-09T16:09:23.534Z,1.60
2018-07-09T16:11:51.872Z,1.40
2018-07-09T16:14:20.131Z,1.70
2018-07-09T16:16:48.641Z,2.60
2018-07-09T16:19:17.022Z,1.83
2018-07-09T16:21:45.640Z,1.50
2018-07-09T16:24:14.118Z,1.47
2018-07-09T16:26:42.659Z,2.50
2018-07-09T16:29:11.259Z,1.80
2018-07-09T16:31:39.731Z,2.70
2018-07-09T16:34:08.480Z,1.37
2018-07-09T16:36:37.048Z,1.80
2018-07-09T16:39:06.514Z,1.20
2018-07-09T16:41:35.519Z,1.70
2018-07-09T16:44:03.982Z,1.60
2018-07-09T16:46:32.478Z,1.50
2018-07-09T16:49:01.030Z,1.60
2018-07-09T16:51:29.676Z,1.77
2018-07-09T16:53:58.422Z,1.40
2018-07-09T16:56:26.752Z,1.50
2018-07-09T16:58:55.235Z,1.70
2018-07-09T17:01:23.746Z,1.40
2018-07-09T17:03:52.199Z,1.30
2018-07-09T17:06:20.596Z,1.50
2018-07-09T17:08:48.986Z,1.47
2018-07-09T17:11:17.366Z,1.20
2018-07-09T17:13:46.012Z,1.33
2018-07-09T17:16:14.342Z,1.20
2018-07-09T17:18:42.733Z,1.30
2018-07-09T17:21:11.054Z,1.20
2018-07-09T17:23:39.461Z,1.20
2018-07-09T17:26:07.871Z,1.00
2018-07-09T17:28:36.421Z,1.23
2018-07-09T17:31:05.265Z,1.20
2018-07-09T17:33:33.607Z,1.30
2018-07-09T17:36:02.033Z,1.40
2018-07-09T17:38:30.709Z,1.13
2018-07-09T17:40:59.366Z,1.40
2018-07-09T17:43:27.688Z,1.10
2018-07-09T17:45:55.988Z,1.30
2018-07-09T17:48:24.280Z,1.30
2018-07-09T17:50:59.381Z,1.50
2018-07-09T17:53:28.288Z,1.40
2018-07-09T17:55:56.572Z,1.50
2018-07-09T17:58:24.837Z,1.50
2018-07-09T18:00:53.336Z,1.20
2018-07-09T18:03:21.729Z,1.50
2018-07-09T18:05:50.212Z,1.27
2018-07-09T18:08:18.533Z,1.30
2018-07-09T18:10:46.843Z,1.17
2018-07-09T18:13:15.130Z,1.07
2018-07-09T18:15:43.569Z,1.10
2018-07-09T18:18:11.865Z,1.50
2018-07-09T18:20:40.175Z,1.13
2018-07-09T18:23:08.551Z,1.40
2018-07-09T18:25:36.952Z,1.20
2018-07-09T18:28:05.351Z,1.40
2018-07-09T18:30:33.748Z,1.60
2018-07-09T18:33:02.168Z,2.10
2018-07-09T18:35:30.636Z,2.27
2018-07-09T18:37:59.386Z,1.73
2018-07-09T18:40:27.725Z,1.57
2018-07-09T18:42:56.639Z,1.63
2018-07-09T18:45:24.921Z,1.30
2018-07-09T18:47:53.264Z,2.23
2018-07-09T18:50:21.714Z,2.10
2018-07-09T18:52:50.080Z,2.43
2018-07-09T18:55:18.909Z,2.20
2018-07-09T18:57:47.289Z,1.67
2018-07-09T19:00:15.628Z,2.10
2018-07-09T19:02:43.941Z,2.10
2018-07-09T19:05:12.545Z,2.00
2018-07-09T19:07:40.879Z,1.83
2018-07-09T19:10:09.201Z,1.60
2018-07-09T19:12:38.192Z,1.60
2018-07-09T19:15:08.196Z,1.70
2018-07-09T19:17:58.631Z,1.53
2018-07-09T19:20:38.341Z,1.57
2018-07-09T19:23:06.605Z,1.70
2018-07-09T19:25:34.794Z,1.87
2018-07-09T19:28:02.614Z,1.40
2018-07-09T19:30:29.972Z,1.77
2018-07-09T19:32:57.977Z,1.80
2018-07-09T19:35:25.638Z,1.70
2018-07-09T19:37:53.321Z,2.00
2018-07-09T19:40:20.162Z,1.77
2018-07-09T19:42:47.465Z,1.67
2018-07-09T19:45:14.708Z,1.90
2018-07-09T19:47:42.071Z,1.60
2018-07-09T19:50:09.327Z,1.90
2018-07-09T19:52:36.604Z,2.03
2018-07-09T19:55:03.917Z,1.30
2018-07-09T19:57:31.528Z,1.53
2018-07-09T19:59:58.806Z,1.67
2018-07-09T20:02:26.069Z,1.70
2018-07-09T20:04:53.365Z,1.67
2018-07-09T20:07:20.603Z,2.07
2018-07-09T20:09:53.356Z,1.37
2018-07-09T20:12:26.120Z,1.50
2018-07-09T20:14:58.646Z,1.80
2018-07-09T20:17:28.819Z,1.77
2018-07-09T20:19:56.116Z,1.53
2018-07-09T20:22:23.339Z,1.57
2018-07-09T20:24:50.623Z,1.90
2018-07-09T20:27:17.876Z,1.70
2018-07-09T20:29:45.128Z,1.93
2018-07-09T20:32:12.376Z,1.73
2018-07-09T20:34:39.822Z,1.80
2018-07-09T20:37:07.115Z,1.60
2018-07-09T20:39:34.630Z,1.90
2018-07-09T20:42:02.725Z,1.90
2018-07-09T20:44:30.044Z,2.00
2018-07-09T20:46:57.308Z,2.20
2018-07-09T20:49:24.596Z,1.80
2018-07-09T20:51:51.880Z,3.03
2018-07-09T20:54:19.141Z,2.00
2018-07-09T20:56:46.388Z,2.07
2018-07-09T20:59:13.691Z,1.70
2018-07-09T21:01:40.972Z,1.97
2018-07-09T21:04:13.653Z,2.13
2018-07-09T21:06:40.919Z,1.73
2018-07-09T21:09:08.303Z,1.73
2018-07-09T21:11:35.984Z,2.03
2018-07-09T21:14:03.354Z,1.90
2018-07-09T21:16:30.848Z,1.80
2018-07-09T21:18:58.222Z,2.13
2018-07-09T21:21:28.456Z,1.70
2018-07-09T21:23:56.761Z,2.03
2018-07-09T21:26:24.362Z,2.20
2018-07-09T21:28:51.660Z,1.90
2018-07-09T21:31:18.872Z,1.60
2018-07-09T21:33:46.138Z,1.90
2018-07-09T21:36:13.644Z,1.47
2018-07-09T21:38:41.706Z,1.77
2018-07-09T21:41:09.223Z,2.17
2018-07-09T21:43:36.530Z,1.73
2018-07-09T21:46:03.873Z,1.67
2018-07-09T21:48:31.508Z,1.70
2018-07-09T21:50:59.355Z,1.30
2018-07-09T21:53:27.304Z,1.57
2018-07-09T21:55:54.933Z,1.40
2018-07-09T21:58:22.704Z,1.87
2018-07-09T22:00:50.063Z,1.40
2018-07-09T22:03:17.346Z,1.37
2018-07-09T22:05:44.611Z,1.20
2018-07-09T22:08:11.896Z,1.50
2018-07-09T22:10:39.152Z,1.47
2018-07-09T22:13:06.573Z,1.83
2018-07-09T22:15:33.843Z,1.67
2018-07-09T22:18:01.417Z,1.73
2018-07-09T22:20:28.852Z,1.60
2018-07-09T22:22:56.128Z,1.63
2018-07-09T22:25:23.403Z,1.27
2018-07-09T22:27:50.667Z,1.50
2018-07-09T22:30:25.325Z,1.63
2018-07-09T22:32:53.727Z,1.57
2018-07-09T22:35:22.086Z,1.47
2018-07-09T22:37:50.462Z,1.30
2018-07-09T22:40:18.893Z,2.27
2018-07-09T22:42:47.264Z,1.70
2018-07-09T22:45:15.717Z,1.70
2018-07-09T22:47:44.220Z,1.60
2018-07-09T22:50:12.620Z,1.40
2018-07-09T22:52:40.904Z,1.53
2018-07-09T22:55:20.646Z,1.53
2018-07-09T22:57:48.960Z,1.60
2018-07-09T23:00:18.953Z,1.33
2018-07-09T23:02:56.214Z,2.00
2018-07-09T23:05:24.615Z,1.67
2018-07-09T23:07:53.104Z,1.83
2018-07-09T23:11:33.589Z,1.77
2018-07-09T23:16:44.684Z,1.60
2018-07-09T23:19:25.762Z,1.50
2018-07-09T23:22:26.305Z,1.53
2018-07-09T23:24:53.531Z,1.20
2018-07-09T23:27:20.848Z,1.33
2018-07-09T23:29:48.083Z,1.80
2018-07-09T23:32:15.356Z,1.70
2018-07-09T23:34:42.591Z,1.70
2018-07-09T23:37:09.887Z,1.60
2018-07-09T23:39:37.164Z,1.30
2018-07-09T23:42:05.400Z,1.90
2018-07-09T23:44:32.732Z,1.60
2018-07-09T23:47:00.133Z,1.57
2018-07-09T23:49:27.415Z,1.20
2018-07-09T23:51:54.696Z,1.20
2018-07-09T23:54:21.930Z,1.40
2018-07-09T23:58:59.180Z,1.50
